Terminal Aerodrome Forecast
Issued by NWS

Home | Current Version | Previous Version | Graphics & Text | Print | Product List | Glossary On
Versions: 1 2 3 4 5 6 7 8 9 10 11 12 13 14 15 16
264
FTUS43 KPAH 171120
TAFCGI
TAF
KCGI 171120Z 1712/1812 34010KT P6SM OVC019
      TEMPO 1712/1714 SCT019
     FM171400 32008KT P6SM SCT025
      TEMPO 1716/1720 BKN025
     FM172000 23005KT P6SM FEW025
     FM180000 20003KT P6SM SKC=

USA.gov is the U.S. government's official web portal to all federal, state and local government web resources and services.